Time;durP1;ratioP1;P1;durP2;ratioP2;P2;SDS_P1;SDS_P2;PMS_P1;PMS_P2;Temp;Humidity;BMP_temperature;BMP_pressure;BME280_temperature;BME280_humidity;BME280_pressure;Samples;Min_cycle;Max_cycle;Signal;HPM_P1;HPM_P2
2023/04/04 00:01:43;;;;;;;12.10;3.92;;;;;;;3.54;100.00;102575.22;5075680;28;20159;-76
2023/04/04 00:04:10;;;;;;;10.38;4.03;;;;;;;3.52;100.00;102578.25;5079589;28;20055;-76
2023/04/04 00:06:36;;;;;;;11.07;4.20;;;;;;;3.48;100.00;102581.91;5075880;28;20134;-77
2023/04/04 00:09:03;;;;;;;11.52;4.13;;;;;;;3.52;100.00;102578.25;5077274;28;20059;-77
2023/04/04 00:11:30;;;;;;;14.18;4.07;;;;;;;3.50;100.00;102574.19;5082676;28;20047;-77
2023/04/04 00:13:56;;;;;;;10.98;3.75;;;;;;;3.45;100.00;102575.13;5082578;28;20044;-78
2023/04/04 00:16:23;;;;;;;13.10;3.85;;;;;;;3.44;100.00;102575.44;5077480;28;20594;-76
2023/04/04 00:18:49;;;;;;;12.68;4.70;;;;;;;3.44;100.00;102580.91;5079837;28;20043;-76
2023/04/04 00:21:16;;;;;;;13.02;4.70;;;;;;;3.41;100.00;102585.03;5078235;28;20062;-75
2023/04/04 00:23:43;;;;;;;12.43;4.30;;;;;;;3.40;100.00;102577.13;5082167;28;20523;-77
2023/04/04 00:26:10;;;;;;;14.65;4.55;;;;;;;3.39;100.00;102589.19;5088511;28;20048;-77
2023/04/04 00:28:36;;;;;;;23.85;7.32;;;;;;;3.33;100.00;102585.75;5086050;28;20054;-76
2023/04/04 00:31:03;;;;;;;23.20;8.15;;;;;;;3.33;100.00;102588.50;5089503;28;20036;-76
2023/04/04 00:33:29;;;;;;;32.58;12.63;;;;;;;3.33;100.00;102585.75;5085341;28;20489;-77
2023/04/04 00:35:56;;;;;;;27.35;10.65;;;;;;;3.33;100.00;102593.97;5092309;28;20056;-76
2023/04/04 00:38:23;;;;;;;28.48;10.07;;;;;;;3.28;100.00;102582.31;5084925;28;20090;-76
2023/04/04 00:40:50;;;;;;;26.10;10.40;;;;;;;3.27;100.00;102586.16;5087960;28;20219;-76
2023/04/04 00:43:17;;;;;;;23.25;7.82;;;;;;;3.20;100.00;102581.09;5082509;28;20051;-75
2023/04/04 00:45:45;;;;;;;21.88;8.77;;;;;;;3.21;100.00;102590.94;5082396;28;20050;-76
2023/04/04 00:48:12;;;;;;;18.70;6.40;;;;;;;3.19;100.00;102584.13;5079899;28;20048;-77
2023/04/04 00:50:38;;;;;;;19.23;5.88;;;;;;;3.15;100.00;102573.00;5087322;28;20044;-79
2023/04/04 00:53:05;;;;;;;15.75;5.32;;;;;;;3.14;100.00;102576.81;5085237;28;20051;-75
2023/04/04 00:55:32;;;;;;;13.27;4.70;;;;;;;3.14;100.00;102568.59;5084035;28;20051;-76
2023/04/04 00:57:59;;;;;;;18.67;5.85;;;;;;;3.10;100.00;102570.34;5081119;28;20055;-74
2023/04/04 01:00:26;;;;;;;15.98;5.32;;;;;;;3.14;100.00;102576.81;5085611;28;20086;-77
2023/04/04 01:02:52;;;;;;;13.20;5.00;;;;;;;3.09;100.00;102576.09;5075785;28;20052;-76
2023/04/04 01:05:19;;;;;;;18.10;6.07;;;;;;;3.09;100.00;102578.84;5088938;28;20054;-75
2023/04/04 01:07:46;;;;;;;15.32;5.50;;;;;;;3.04;100.00;102571.56;5085116;28;20098;-78
2023/04/04 01:10:12;;;;;;;16.42;5.90;;;;;;;3.07;100.00;102570.94;5085222;28;20056;-78
2023/04/04 01:12:41;;;;;;;19.27;6.43;;;;;;;3.08;100.00;102575.31;5086757;28;20071;-77
2023/04/04 01:15:08;;;;;;;19.02;5.90;;;;;;;3.05;100.00;102569.63;5085258;28;20048;-77
2023/04/04 01:17:35;;;;;;;17.80;5.35;;;;;;;3.02;100.00;102568.31;5083569;28;20048;-77
2023/04/04 01:20:10;;;;;;;16.52;6.47;;;;;;;3.04;100.00;102577.03;5081768;28;20895;-76
2023/04/04 01:22:37;;;;;;;16.88;7.55;;;;;;;2.97;100.00;102571.13;5085433;28;20385;-77
2023/04/04 01:25:05;;;;;;;19.88;7.20;;;;;;;2.97;100.00;102571.13;5078700;28;20585;-77
2023/04/04 01:27:33;;;;;;;18.85;6.68;;;;;;;2.89;100.00;102565.53;5086482;28;20047;-77
2023/04/04 01:30:00;;;;;;;18.90;6.32;;;;;;;2.90;100.00;102565.25;5082848;28;20053;-77
2023/04/04 01:32:33;;;;;;;21.52;7.30;;;;;;;2.84;100.00;102560.19;5077566;28;20040;-76
2023/04/04 01:35:31;;;;;;;16.60;5.82;;;;;;;2.81;100.00;102571.72;5086634;28;20743;-79
2023/04/04 01:38:16;;;;;;;16.33;5.88;;;;;;;2.85;100.00;102562.63;5084892;28;20131;-77
2023/04/04 01:41:00;;;;;;;17.42;5.10;;;;;;;2.76;100.00;102552.69;5084586;28;20055;-78
2023/04/04 01:43:29;;;;;;;14.18;4.85;;;;;;;2.74;100.00;102561.19;5078843;28;20083;-76
2023/04/04 01:45:57;;;;;;;14.68;4.53;;;;;;;2.64;100.00;102551.22;5080410;28;20509;-76
2023/04/04 01:48:23;;;;;;;12.82;4.80;;;;;;;2.67;100.00;102552.56;5085409;28;20075;-76
2023/04/04 01:50:50;;;;;;;13.82;4.43;;;;;;;2.67;100.00;102560.75;5086636;28;20044;-77
2023/04/04 01:53:16;;;;;;;13.98;4.53;;;;;;;2.59;100.00;102547.75;5080774;28;20118;-78
2023/04/04 01:55:43;;;;;;;11.05;4.20;;;;;;;2.63;100.00;102559.72;5086299;28;20048;-79
2023/04/04 01:58:10;;;;;;;13.77;4.22;;;;;;;2.61;100.00;102553.75;5078969;28;20048;-77
2023/04/04 02:00:36;;;;;;;10.30;4.07;;;;;;;2.56;100.00;102548.34;5081210;28;20053;-77
2023/04/04 02:03:03;;;;;;;10.90;3.92;;;;;;;2.55;100.00;102547.56;5077634;28;20048;-77
2023/04/04 02:05:29;;;;;;;11.75;3.45;;;;;;;2.51;100.00;102549.28;5080160;28;20044;-78
2023/04/04 02:07:56;;;;;;;10.85;3.92;;;;;;;2.45;100.00;102547.75;5087026;28;20488;-78
2023/04/04 02:10:23;;;;;;;17.83;5.15;;;;;;;2.41;100.00;102548.63;5082146;28;20056;-77
2023/04/04 02:12:52;;;;;;;14.10;4.05;;;;;;;2.41;100.00;102551.34;5080671;28;20040;-75
2023/04/04 02:15:18;;;;;;;15.85;4.65;;;;;;;2.38;100.00;102550.03;5088543;28;20072;-78
2023/04/04 02:17:48;;;;;;;14.65;4.55;;;;;;;2.45;100.00;102552.38;5087520;28;20419;-75
2023/04/04 02:20:16;;;;;;;11.48;4.18;;;;;;;2.42;100.00;102550.25;5082450;28;20431;-77
2023/04/04 02:22:49;;;;;;;14.30;4.38;;;;;;;2.38;100.00;102552.78;5083842;28;20066;-77
2023/04/04 02:25:16;;;;;;;10.98;4.30;;;;;;;2.35;100.00;102549.81;5088203;28;20071;-76
2023/04/04 02:27:42;;;;;;;11.20;4.32;;;;;;;2.33;100.00;102547.38;5084273;28;20049;-77
2023/04/04 02:30:09;;;;;;;11.73;4.47;;;;;;;2.35;100.00;102544.34;5081643;28;20059;-78
2023/04/04 02:32:37;;;;;;;19.25;5.22;;;;;;;2.32;100.00;102548.50;5083398;28;20507;-75
2023/04/04 02:35:04;;;;;;;13.93;5.82;;;;;;;2.34;100.00;102550.94;5082403;28;20434;-77
2023/04/04 02:37:30;;;;;;;14.15;4.90;;;;;;;2.37;100.00;102551.13;5082440;28;20054;-76
2023/04/04 02:39:57;;;;;;;14.98;5.63;;;;;;;2.35;100.00;102541.63;5087803;28;20051;-78
2023/04/04 02:42:23;;;;;;;18.38;6.93;;;;;;;2.33;100.00;102549.31;5085246;28;20109;-76
2023/04/04 02:44:50;;;;;;;19.25;7.10;;;;;;;2.25;100.00;102539.88;5081705;28;20040;-77
2023/04/04 02:47:16;;;;;;;14.20;6.22;;;;;;;2.22;100.00;102545.91;5083264;28;20052;-76
2023/04/04 02:49:43;;;;;;;12.73;5.75;;;;;;;2.24;100.00;102549.19;5088279;28;20059;-76
2023/04/04 02:52:09;;;;;;;13.48;4.47;;;;;;;2.29;100.00;102549.09;5085398;28;20054;-79
2023/04/04 02:54:36;;;;;;;11.65;4.32;;;;;;;2.23;100.00;102550.28;5086802;28;20055;-77
2023/04/04 02:57:03;;;;;;;13.98;5.20;;;;;;;2.22;100.00;102540.47;5087953;28;20131;-76
2023/04/04 02:59:30;;;;;;;14.07;4.72;;;;;;;2.14;100.00;102543.88;5084838;28;20058;-77
2023/04/04 03:01:56;;;;;;;11.10;4.60;;;;;;;2.11;100.00;102540.91;5084807;28;20143;-77
2023/04/04 03:04:23;;;;;;;12.15;4.57;;;;;;;2.11;100.00;102546.38;5086887;28;20044;-77
2023/04/04 03:06:49;;;;;;;13.35;4.10;;;;;;;2.05;100.00;102536.63;5087837;28;20044;-77
2023/04/04 03:09:16;;;;;;;17.63;6.00;;;;;;;1.99;100.00;102532.38;5083165;28;20055;-77
2023/04/04 03:11:42;;;;;;;18.10;5.47;;;;;;;1.99;100.00;102532.38;5082469;28;20524;-77
2023/04/04 03:14:09;;;;;;;12.57;5.03;;;;;;;1.92;100.00;102529.19;5084966;28;20050;-77
2023/04/04 03:16:36;;;;;;;12.55;5.10;;;;;;;1.93;100.00;102542.53;5085041;28;20059;-77
2023/04/04 03:19:02;;;;;;;16.55;6.05;;;;;;;1.88;100.00;102542.63;5085576;28;20070;-77
2023/04/04 03:21:29;;;;;;;16.35;6.43;;;;;;;1.88;100.00;102539.91;5086254;28;20063;-77
2023/04/04 03:23:55;;;;;;;16.50;5.00;;;;;;;1.82;100.00;102524.69;5082143;28;20708;-78
2023/04/04 03:26:22;;;;;;;14.25;5.25;;;;;;;1.81;100.00;102520.34;5083471;28;20060;-76
2023/04/04 03:28:48;;;;;;;13.68;5.05;;;;;;;1.85;100.00;102528.75;5083192;28;20048;-77
2023/04/04 03:31:15;;;;;;;14.05;5.43;;;;;;;1.84;100.00;102524.41;5086932;28;20044;-77
2023/04/04 03:33:42;;;;;;;15.20;5.50;;;;;;;1.83;100.00;102523.56;5081457;28;20135;-77
2023/04/04 03:36:12;;;;;;;14.68;5.78;;;;;;;1.87;100.00;102518.34;5082727;28;20052;-78
2023/04/04 03:38:39;;;;;;;12.65;5.20;;;;;;;1.90;100.00;102517.75;5082412;28;20047;-78
2023/04/04 03:41:07;;;;;;;14.18;5.25;;;;;;;1.89;100.00;102516.16;5087093;28;20173;-77
2023/04/04 03:43:34;;;;;;;15.25;6.22;;;;;;;1.87;100.00;102513.72;5080939;28;20383;-77
2023/04/04 03:46:01;;;;;;;16.77;6.93;;;;;;;1.85;100.00;102515.91;5086558;28;20044;-76
2023/04/04 03:48:28;;;;;;;15.43;5.65;;;;;;;1.84;100.00;102513.47;5084184;28;20133;-76
2023/04/04 03:50:58;;;;;;;15.05;5.35;;;;;;;1.78;100.00;102520.09;5086207;28;20046;-77
2023/04/04 03:53:25;;;;;;;14.57;5.25;;;;;;;1.74;100.00;102510.91;5079325;28;20568;-77
2023/04/04 03:55:54;;;;;;;17.88;4.60;;;;;;;1.73;100.00;102525.66;5080742;28;20066;-77
2023/04/04 03:58:21;;;;;;;14.23;5.18;;;;;;;1.69;100.00;102516.44;5079525;28;20058;-76
2023/04/04 04:00:48;;;;;;;15.93;5.05;;;;;;;1.69;100.00;102519.16;5083028;28;20074;-77
2023/04/04 04:03:14;;;;;;;15.40;5.07;;;;;;;1.71;100.00;102522.41;5083605;28;20062;-77
2023/04/04 04:05:42;;;;;;;15.98;5.32;;;;;;;1.76;100.00;102516.88;5079839;28;20090;-77
2023/04/04 04:08:09;;;;;;;14.88;6.13;;;;;;;1.73;100.00;102512.00;5084701;28;20047;-77
2023/04/04 04:10:36;;;;;;;16.60;5.05;;;;;;;1.65;100.00;102508.00;5085691;28;20052;-79
2023/04/04 04:13:03;;;;;;;14.30;5.60;;;;;;;1.62;100.00;102500.41;5081407;28;20041;-77
2023/04/04 04:15:29;;;;;;;15.73;5.45;;;;;;;1.63;100.00;102503.97;5086295;28;20071;-77
2023/04/04 04:17:56;;;;;;;12.95;4.97;;;;;;;1.64;100.00;102508.31;5084158;28;20359;-78
2023/04/04 04:20:22;;;;;;;13.98;4.97;;;;;;;1.62;100.00;102507.81;5084654;28;20048;-77
2023/04/04 04:22:49;;;;;;;14.63;5.15;;;;;;;1.62;100.00;102511.31;5088912;28;20040;-78
2023/04/04 04:25:19;;;;;;;14.13;5.75;;;;;;;1.63;100.00;102512.97;5084885;28;20715;-77
2023/04/04 04:27:46;;;;;;;19.40;5.68;;;;;;;1.64;100.00;102511.03;5088915;28;20452;-78
2023/04/04 04:30:12;;;;;;;14.52;5.35;;;;;;;1.63;100.00;102506.69;5084298;28;20074;-78
2023/04/04 04:32:39;;;;;;;14.68;5.28;;;;;;;1.63;100.00;102501.25;5083436;28;20044;-77
2023/04/04 04:35:07;;;;;;;11.68;5.32;;;;;;;1.60;100.00;102507.28;5087715;28;20059;-78
2023/04/04 04:37:34;;;;;;;14.80;5.57;;;;;;;1.54;100.00;102503.00;5082098;28;20050;-79
2023/04/04 04:40:00;;;;;;;16.23;5.32;;;;;;;1.50;100.00;102501.97;5088185;28;20812;-76
2023/04/04 04:42:28;;;;;;;13.88;5.28;;;;;;;1.49;100.00;102501.13;5084222;28;20044;-78
2023/04/04 04:44:55;;;;;;;16.33;5.97;;;;;;;1.49;100.00;102500.34;5084387;28;20053;-77
2023/04/04 04:47:21;;;;;;;12.52;5.60;;;;;;;1.50;100.00;102499.22;5089906;28;20079;-77
2023/04/04 04:49:48;;;;;;;13.52;6.28;;;;;;;1.50;100.00;102493.78;5083669;28;20052;-77
2023/04/04 04:52:15;;;;;;;23.60;6.03;;;;;;;1.49;100.00;102500.34;5087402;28;20052;-75
2023/04/04 04:54:42;;;;;;;18.50;5.88;;;;;;;1.45;100.00;102497.38;5081187;28;20048;-78
2023/04/04 04:57:09;;;;;;;18.75;6.45;;;;;;;1.42;100.00;102499.91;5087216;28;20487;-77
2023/04/04 04:59:36;;;;;;;17.13;5.68;;;;;;;1.40;100.00;102497.47;5078240;28;20053;-77
2023/04/04 05:02:02;;;;;;;14.40;5.97;;;;;;;1.40;100.00;102505.66;5087891;28;20048;-80
2023/04/04 05:04:29;;;;;;;18.13;5.72;;;;;;;1.39;100.00;102505.94;5089166;28;20518;-76
2023/04/04 05:06:55;;;;;;;14.00;5.70;;;;;;;1.36;100.00;102501.06;5084523;28;20051;-75
2023/04/04 05:09:22;;;;;;;15.57;5.97;;;;;;;1.35;100.00;102511.16;5088178;28;20044;-77
2023/04/04 05:11:48;;;;;;;15.27;6.07;;;;;;;1.36;100.00;102501.06;5087150;28;20070;-78
2023/04/04 05:14:15;;;;;;;15.50;5.72;;;;;;;1.36;100.00;102501.06;5086960;28;20127;-76
2023/04/04 05:16:41;;;;;;;14.77;5.88;;;;;;;1.35;100.00;102505.69;5088914;28;20055;-77
2023/04/04 05:19:08;;;;;;;12.73;5.40;;;;;;;1.34;100.00;102506.81;5081213;28;20056;-77
2023/04/04 05:21:35;;;;;;;12.68;5.95;;;;;;;1.34;100.00;102512.25;5084679;28;20514;-77
2023/04/04 05:24:01;;;;;;;13.57;5.43;;;;;;;1.33;100.00;102509.81;5082055;28;20070;-76
2023/04/04 05:26:28;;;;;;;13.95;5.97;;;;;;;1.34;100.00;102516.91;5081062;28;20055;-76
2023/04/04 05:28:55;;;;;;;17.25;6.50;;;;;;;1.34;100.00;102522.34;5089552;28;20054;-76
2023/04/04 05:31:21;;;;;;;17.17;6.28;;;;;;;1.35;100.00;102524.00;5087543;28;20048;-78
2023/04/04 05:33:48;;;;;;;15.85;5.60;;;;;;;1.35;100.00;102518.53;5088686;28;20044;-77
2023/04/04 05:36:14;;;;;;;18.23;6.45;;;;;;;1.37;100.00;102519.03;5086345;28;20101;-78
2023/04/04 05:38:41;;;;;;;20.17;7.30;;;;;;;1.42;100.00;102524.44;5084237;28;20123;-78
2023/04/04 05:41:07;;;;;;;13.82;6.22;;;;;;;1.44;100.00;102525.78;5085879;28;20052;-75
2023/04/04 05:43:34;;;;;;;13.07;6.18;;;;;;;1.53;100.00;102531.38;5081702;28;20052;-75
2023/04/04 05:46:01;;;;;;;17.58;6.43;;;;;;;1.54;100.00;102533.81;5087880;28;20059;-76
2023/04/04 05:48:27;;;;;;;18.33;6.57;;;;;;;1.59;100.00;102533.75;5087657;28;20058;-78
2023/04/04 05:50:54;;;;;;;17.13;6.60;;;;;;;1.61;100.00;102530.72;5083032;28;20047;-76
2023/04/04 05:53:21;;;;;;;14.75;6.22;;;;;;;1.65;100.00;102527.13;5088530;28;20107;-76
2023/04/04 05:55:53;;;;;;;12.82;5.60;;;;;;;1.66;100.00;102534.19;5087969;28;20044;-75
2023/04/04 05:58:20;;;;;;;18.58;6.10;;;;;;;1.71;100.00;102531.41;5087322;28;20052;-78
2023/04/04 06:00:47;;;;;;;15.18;6.10;;;;;;;1.78;100.00;102539.22;5087767;28;20089;-77
2023/04/04 06:03:13;;;;;;;17.27;7.30;;;;;;;1.81;100.00;102541.34;5087908;28;20044;-79
2023/04/04 06:05:42;;;;;;;20.70;8.13;;;;;;;1.85;100.00;102554.13;5085950;28;20066;-78
2023/04/04 06:08:09;;;;;;;14.65;6.40;;;;;;;1.90;100.00;102558.72;5086256;28;20056;-78
2023/04/04 06:10:36;;;;;;;12.90;5.93;;;;;;;1.92;100.00;102564.66;5085459;28;20048;-78
2023/04/04 06:13:02;;;;;;;18.25;6.78;;;;;;;1.98;100.00;102566.22;5085434;28;20048;-76
2023/04/04 06:15:29;;;;;;;17.70;6.47;;;;;;;1.98;100.00;102561.59;5088105;28;20066;-77
2023/04/04 06:17:56;;;;;;;18.33;6.90;;;;;;;1.99;100.00;102555.00;5085403;28;20047;-79
2023/04/04 06:20:23;;;;;;;16.25;6.70;;;;;;;2.08;100.00;102568.81;5083719;28;20911;-74
2023/04/04 06:22:50;;;;;;;16.52;6.32;;;;;;;2.13;100.00;102560.56;5086196;28;20048;-78
2023/04/04 06:25:17;;;;;;;15.52;6.50;;;;;;;2.24;100.00;102568.31;5078004;28;20048;-74
2023/04/04 06:27:44;;;;;;;18.80;7.70;;;;;;;2.34;100.00;102575.50;5085717;28;20101;-76
2023/04/04 06:30:13;;;;;;;14.50;6.15;;;;;;;2.42;100.00;102581.13;5078510;28;20050;-76
2023/04/04 06:32:39;;;;;;;17.63;7.35;;;;;;;2.56;100.00;102592.09;5083664;28;20048;-75
2023/04/04 06:35:06;;;;;;;17.52;8.13;;;;;;;2.64;100.00;102584.00;5082025;28;20253;-76
2023/04/04 06:37:33;;;;;;;19.90;7.93;;;;;;;2.72;100.00;102588.00;5084254;28;20052;-78
2023/04/04 06:39:59;;;;;;;19.30;7.18;;;;;;;2.82;100.00;102584.25;5088231;28;20517;-75
2023/04/04 06:42:27;;;;;;;17.27;6.25;;;;;;;2.90;100.00;102592.59;5085710;28;20429;-76
2023/04/04 06:44:53;;;;;;;23.63;7.57;;;;;;;2.99;100.00;102587.22;5083960;28;20099;-78
2023/04/04 06:47:20;;;;;;;17.30;6.70;;;;;;;3.10;100.00;102584.00;5080872;28;20056;-77
2023/04/04 06:49:46;;;;;;;16.80;6.90;;;;;;;3.19;100.00;102581.38;5081589;28;20060;-79
2023/04/04 06:52:13;;;;;;;15.63;6.40;;;;;;;3.27;100.00;102586.97;5085903;28;20044;-79
2023/04/04 06:54:39;;;;;;;16.60;6.00;;;;;;;3.33;100.00;102580.28;5083927;28;20434;-76
2023/04/04 06:57:06;;;;;;;22.23;7.15;;;;;;;3.41;100.00;102587.78;5084748;28;20052;-77
2023/04/04 06:59:32;;;;;;;19.30;6.85;;;;;;;3.46;100.00;102587.69;5081744;28;20056;-73
2023/04/04 07:01:59;;;;;;;17.63;5.82;;;;;;;3.50;100.00;102588.69;5078524;28;20098;-77
2023/04/04 07:04:26;;;;;;;18.05;6.47;;;;;;;3.49;100.00;102589.81;5083256;28;20077;-77
2023/04/04 07:06:53;;;;;;;17.55;6.50;;;;;;;3.57;100.00;102597.31;5087734;28;20055;-76
2023/04/04 07:09:19;;;;;;;17.13;7.28;;;;;;;3.66;100.00;102592.75;5084377;28;20529;-83
2023/04/04 07:11:54;;;;;;;20.35;8.75;;;;;;;3.77;100.00;102596.88;5082531;28;20083;-76
2023/04/04 07:14:23;;;;;;;19.52;7.53;;;;;;;3.85;100.00;102587.16;5086259;28;20055;-76
2023/04/04 07:16:51;;;;;;;20.77;7.10;;;;;;;3.92;100.00;102591.06;5082260;28;20051;-77
2023/04/04 07:19:17;;;;;;;20.23;7.55;;;;;;;4.04;100.00;102593.28;5083278;28;20143;-78
2023/04/04 07:21:44;;;;;;;19.25;7.07;;;;;;;4.14;100.00;102591.13;5085085;28;20052;-75
2023/04/04 07:24:10;;;;;;;16.52;6.63;;;;;;;4.18;100.00;102580.34;5083073;28;20071;-77
2023/04/04 07:26:37;;;;;;;16.23;6.50;;;;;;;4.30;100.00;102584.19;5087287;28;20118;-76
2023/04/04 07:29:03;;;;;;;13.88;6.38;;;;;;;4.39;100.00;102582.28;5084603;28;20780;-77
2023/04/04 07:31:30;;;;;;;15.43;6.57;;;;;;;4.49;100.00;102587.53;5081785;28;20541;-73
2023/04/04 07:33:57;;;;;;;18.33;6.85;;;;;;;4.60;100.00;102580.72;5083453;28;20056;-74
2023/04/04 07:36:24;;;;;;;18.30;7.03;;;;;;;4.71;100.00;102582.06;5081090;28;20044;-74
2023/04/04 07:38:51;;;;;;;18.42;6.63;;;;;;;4.74;100.00;102573.22;5077294;28;20131;-75
2023/04/04 07:41:17;;;;;;;18.25;5.70;;;;;;;4.86;100.00;102586.34;5085357;28;20509;-73
2023/04/04 07:43:43;;;;;;;19.20;7.70;;;;;;;4.98;100.00;102584.66;5082495;28;20158;-74
2023/04/04 07:46:10;;;;;;;12.50;5.25;;;;;;;5.08;100.00;102583.56;5084382;28;20074;-74
2023/04/04 07:48:37;;;;;;;15.77;6.53;;;;;;;5.17;100.00;102587.16;5077275;28;20510;-75
2023/04/04 07:51:04;;;;;;;13.57;5.40;;;;;;;5.20;100.00;102584.56;5084661;28;20063;-74
2023/04/04 07:53:31;;;;;;;18.30;5.97;;;;;;;5.30;100.00;102586.25;5080683;28;20397;-73
2023/04/04 07:55:58;;;;;;;16.33;5.60;;;;;;;5.37;100.00;102581.13;5084491;28;20571;-74
2023/04/04 07:58:25;;;;;;;14.05;5.25;;;;;;;5.46;100.00;102570.16;5081867;28;20051;-76
2023/04/04 08:00:52;;;;;;;15.18;4.40;;;;;;;5.55;100.00;102580.03;5085386;28;20048;-72
2023/04/04 08:03:19;;;;;;;21.83;5.72;;;;;;;5.62;100.00;102572.13;5082691;28;20049;-75
2023/04/04 08:05:45;;;;;;;12.57;4.20;;;;;;;5.66;100.00;102569.53;5080229;28;20051;-73
2023/04/04 08:08:12;;;;;;;11.55;4.40;;;;;;;5.73;100.00;102567.16;5081762;28;20051;-75
2023/04/04 08:10:39;;;;;;;11.68;4.35;;;;;;;5.81;100.00;102560.88;5083327;28;20043;-77
2023/04/04 08:13:07;;;;;;;12.93;4.47;;;;;;;5.91;100.00;102574.31;5081755;28;20048;-74
2023/04/04 08:15:34;;;;;;;14.48;4.25;;;;;;;6.00;100.00;102567.69;5084011;28;20507;-76
2023/04/04 08:18:01;;;;;;;12.88;4.50;;;;;;;6.10;100.00;102566.56;5084535;28;20056;-76
2023/04/04 08:20:28;;;;;;;13.77;4.03;;;;;;;6.28;100.00;102570.97;5082424;28;20052;-75
2023/04/04 08:22:55;;;;;;;8.57;3.38;;;;;;;6.39;100.00;102572.25;5084152;28;20048;-74
2023/04/04 08:25:21;;;;;;;10.80;3.63;;;;;;;6.44;100.00;102567.38;5073384;28;20983;-74
2023/04/04 08:27:48;;;;;;;11.13;4.28;;;;;;;6.70;100.00;102570.09;5085219;28;20665;-73
2023/04/04 08:30:15;;;;;;;9.40;3.05;;;;;;;6.78;100.00;102577.53;5081886;28;20477;-73
2023/04/04 08:32:44;;;;;;;9.95;3.70;;;;;;;6.77;100.00;102578.66;5083564;28;20071;-73
2023/04/04 08:35:11;;;;;;;7.32;2.83;;;;;;;6.77;100.00;102573.97;5080217;28;20052;-74
2023/04/04 08:37:42;;;;;;;7.13;3.30;;;;;;;6.91;100.00;102579.25;5079644;28;20147;-73
2023/04/04 08:40:09;;;;;;;9.75;3.15;;;;;;;7.02;100.00;102567.56;5076273;28;20048;-74
2023/04/04 08:42:38;;;;;;;6.43;3.13;;;;;;;7.11;100.00;102576.63;5083420;28;20052;-74
2023/04/04 08:45:08;;;;;;;8.98;3.00;;;;;;;7.19;100.00;102569.47;5084315;28;20063;-72
2023/04/04 08:47:37;;;;;;;8.32;2.85;;;;;;;7.28;100.00;102567.47;5080319;28;20470;-74
2023/04/04 08:50:06;;;;;;;9.80;2.50;;;;;;;7.31;100.00;102570.41;5084534;28;20796;-74
2023/04/04 08:52:34;;;;;;;5.60;2.53;;;;;;;7.44;100.00;102560.28;5081026;28;20504;-75
2023/04/04 08:55:07;;;;;;;6.70;2.60;;;;;;;7.50;100.00;102564.47;5079628;28;20099;-75
2023/04/04 08:57:34;;;;;;;9.43;2.88;;;;;;;7.63;100.00;102560.69;5077882;28;20042;-74
2023/04/04 09:00:04;;;;;;;6.40;2.50;;;;;;;7.80;100.00;102566.09;5084443;28;20052;-74
2023/04/04 09:02:48;;;;;;;9.82;2.97;;;;;;;7.95;100.00;102562.72;5087184;28;20051;-73
2023/04/04 09:05:16;;;;;;;10.32;1.98;;;;;;;8.03;95.66;102564.59;5087704;28;20080;-74
2023/04/04 09:07:43;;;;;;;6.20;2.53;;;;;;;8.12;97.23;102564.53;5087995;28;20055;-75
2023/04/04 09:10:10;;;;;;;8.93;2.85;;;;;;;8.14;97.83;102562.25;5090185;28;20052;-76
2023/04/04 09:12:40;;;;;;;11.38;3.40;;;;;;;8.18;99.41;102561.25;5082914;28;20124;-78
2023/04/04 09:15:08;;;;;;;7.78;2.75;;;;;;;8.20;96.40;102560.94;5084667;28;20055;-74
2023/04/04 09:17:36;;;;;;;10.27;2.47;;;;;;;8.23;95.59;102552.81;5081960;28;20133;-74
2023/04/04 09:20:23;;;;;;;6.57;1.95;;;;;;;8.36;95.80;102567.44;5084579;28;20078;-74
2023/04/04 09:22:49;;;;;;;5.68;2.08;;;;;;;8.42;92.13;102566.09;5087737;28;20055;-75
2023/04/04 09:25:16;;;;;;;1.42;0.63;;;;;;;8.48;90.98;102556.47;5087650;28;20048;-74
2023/04/04 09:27:44;;;;;;;13.55;2.70;;;;;;;8.58;91.12;102545.84;5085036;28;20486;-74
2023/04/04 09:30:11;;;;;;;12.45;3.30;;;;;;;8.60;92.16;102540.78;5083754;28;20052;-74
2023/04/04 09:32:37;;;;;;;8.98;3.25;;;;;;;8.65;90.19;102559.06;5086307;28;20052;-75
2023/04/04 09:35:05;;;;;;;9.52;2.83;;;;;;;8.69;91.37;102555.31;5080077;28;20052;-74
2023/04/04 09:37:31;;;;;;;7.80;2.95;;;;;;;8.80;92.53;102552.91;5087374;28;20585;-73
2023/04/04 09:39:58;;;;;;;10.88;2.97;;;;;;;8.90;92.69;102550.53;5085712;28;20143;-74
2023/04/04 09:42:25;;;;;;;8.55;2.45;;;;;;;9.02;90.83;102552.50;5088744;28;20071;-75
2023/04/04 09:44:55;;;;;;;10.65;3.25;;;;;;;9.12;89.43;102552.06;5082078;28;20799;-74
2023/04/04 09:47:23;;;;;;;9.85;2.65;;;;;;;9.23;88.55;102544.94;5083772;28;20040;-74
2023/04/04 09:49:56;;;;;;;7.75;2.65;;;;;;;9.28;88.90;102553.78;5086704;28;20048;-75
2023/04/04 09:52:23;;;;;;;8.00;2.35;;;;;;;9.36;87.24;102552.91;5080830;28;20085;-74
2023/04/04 09:54:57;;;;;;;8.77;3.20;;;;;;;9.31;80.75;102550.34;5085323;28;20497;-75
2023/04/04 09:57:29;;;;;;;11.23;2.53;;;;;;;9.51;84.88;102549.41;5083965;28;20135;-75
2023/04/04 09:59:58;;;;;;;8.40;1.95;;;;;;;9.65;82.22;102544.34;5086917;28;20383;-75
2023/04/04 10:02:26;;;;;;;6.60;1.95;;;;;;;9.78;83.89;102545.94;5085683;28;20135;-75
2023/04/04 10:04:54;;;;;;;11.98;2.03;;;;;;;9.84;80.15;102533.50;5088749;28;20055;-75
2023/04/04 10:07:32;;;;;;;9.75;2.70;;;;;;;9.90;76.75;102543.16;5082582;28;20832;-74
2023/04/04 10:10:05;;;;;;;9.05;2.60;;;;;;;10.00;76.25;102534.34;5084862;28;20048;-75
2023/04/04 10:12:31;;;;;;;3.55;2.05;;;;;;;10.13;76.81;102538.75;5082627;28;20516;-75
2023/04/04 10:14:59;;;;;;;11.32;2.83;;;;;;;10.14;75.22;102529.31;5081767;28;20146;-73
2023/04/04 10:17:35;;;;;;;5.63;2.05;;;;;;;10.21;75.23;102523.97;5085858;28;20098;-75
2023/04/04 10:20:07;;;;;;;6.63;2.20;;;;;;;10.30;73.94;102526.59;5082023;28;20079;-74
2023/04/04 10:22:36;;;;;;;9.85;3.00;;;;;;;10.37;70.34;102527.59;5085243;28;20073;-74
2023/04/04 10:25:04;;;;;;;8.25;2.35;;;;;;;10.37;71.54;102518.50;5085725;28;20046;-75
2023/04/04 10:27:31;;;;;;;9.90;3.28;;;;;;;10.47;71.15;102506.91;5086248;28;20040;-74
2023/04/04 10:29:59;;;;;;;6.10;2.17;;;;;;;10.56;68.87;102517.84;5085339;28;20131;-77
2023/04/04 10:32:31;;;;;;;7.95;2.88;;;;;;;10.56;70.14;102509.53;5086856;28;20059;-77
2023/04/04 10:35:09;;;;;;;6.53;3.50;;;;;;;10.68;69.21;102513.03;5083993;28;20581;-76
2023/04/04 10:37:58;;;;;;;4.68;1.85;;;;;;;10.56;66.53;102506.75;5086055;28;20086;-76
2023/04/04 10:40:34;;;;;;;8.93;3.05;;;;;;;10.53;66.55;102503.53;5083108;28;20052;-75
2023/04/04 10:43:05;;;;;;;10.32;2.20;;;;;;;10.61;67.65;102510.06;5081716;28;20045;-76
2023/04/04 10:45:35;;;;;;;8.70;2.97;;;;;;;10.71;67.11;102501.25;5083304;28;20070;-78
2023/04/04 10:48:02;;;;;;;10.43;3.05;;;;;;;10.93;66.39;102503.41;5085637;28;20048;-74
2023/04/04 10:50:32;;;;;;;8.82;2.40;;;;;;;11.17;64.72;102500.44;5080916;28;20047;-75
2023/04/04 10:53:00;;;;;;;8.18;2.70;;;;;;;11.28;63.51;102495.97;5084482;28;20071;-76
2023/04/04 10:55:28;;;;;;;7.95;2.60;;;;;;;11.28;62.52;102487.66;5080437;28;20044;-76
2023/04/04 10:57:55;;;;;;;15.68;4.80;;;;;;;11.39;62.82;102487.91;5085583;28;20043;-76
2023/04/04 11:00:23;;;;;;;21.25;7.35;;;;;;;11.51;63.36;102483.03;5087724;28;20047;-78
2023/04/04 11:02:58;;;;;;;17.77;5.53;;;;;;;11.70;61.51;102476.78;5077899;28;20084;-78
2023/04/04 11:05:24;;;;;;;6.90;2.80;;;;;;;11.80;59.50;102473.44;5085297;28;20044;-76
2023/04/04 11:08:01;;;;;;;7.07;2.78;;;;;;;11.82;57.31;102471.91;5084883;28;20127;-76
2023/04/04 11:10:35;;;;;;;7.90;2.90;;;;;;;11.84;57.67;102469.56;5086091;28;20044;-78
2023/04/04 11:13:11;;;;;;;8.98;2.88;;;;;;;11.99;60.48;102476.22;5087485;28;20546;-75
2023/04/04 11:15:59;;;;;;;9.35;3.33;;;;;;;12.24;57.42;102466.41;5086889;28;20044;-77
2023/04/04 11:18:38;;;;;;;10.73;3.13;;;;;;;12.43;56.82;102474.75;5080058;28;20099;-76
2023/04/04 11:21:09;;;;;;;10.02;3.00;;;;;;;12.57;56.69;102464.72;5085333;28;20074;-77
2023/04/04 11:23:48;;;;;;;8.20;2.30;;;;;;;12.60;54.82;102463.97;5081721;28;20044;-77